createdAt,value
2023-05-14T00:04:14.416Z,20.60
2023-05-14T00:09:17.451Z,22.10
2023-05-14T00:14:20.357Z,21.70
2023-05-14T00:19:23.319Z,23.50
2023-05-14T00:24:26.294Z,20.50
2023-05-14T00:29:29.410Z,21.10
2023-05-14T00:34:32.267Z,20.50
2023-05-14T00:39:35.230Z,19.80
2023-05-14T00:44:38.068Z,20.10
2023-05-14T00:49:42.170Z,23.70
2023-05-14T00:54:48.243Z,21.50
2023-05-14T00:59:51.131Z,25.00
2023-05-14T01:04:54.909Z,25.20
2023-05-14T01:10:08.550Z,26.60
2023-05-14T01:15:21.358Z,25.50
2023-05-14T01:20:24.480Z,26.40
2023-05-14T01:25:27.852Z,21.30
2023-05-14T01:30:36.729Z,22.10
2023-05-14T01:35:40.663Z,20.90
2023-05-14T01:40:46.070Z,24.60
2023-05-14T01:45:48.880Z,19.80
2023-05-14T01:50:52.066Z,22.90
2023-05-14T01:55:54.885Z,24.10
2023-05-14T02:00:57.874Z,24.80
2023-05-14T02:06:00.913Z,20.90
2023-05-14T02:11:03.763Z,21.60
2023-05-14T02:16:07.058Z,22.50
2023-05-14T02:21:09.931Z,24.80
2023-05-14T02:26:12.881Z,24.30
2023-05-14T02:31:17.706Z,24.90
2023-05-14T02:36:20.651Z,25.80
2023-05-14T02:41:23.486Z,24.20
2023-05-14T02:46:26.450Z,23.10
2023-05-14T02:51:29.462Z,28.00
2023-05-14T02:56:32.250Z,23.90
2023-05-14T03:01:35.136Z,24.20
2023-05-14T03:06:38.325Z,20.60
2023-05-14T03:11:41.361Z,26.10
2023-05-14T03:16:44.246Z,24.00
2023-05-14T03:21:47.248Z,24.90
2023-05-14T03:26:50.032Z,21.80
2023-05-14T03:31:54.427Z,21.10
2023-05-14T03:36:57.669Z,20.50
2023-05-14T03:42:00.674Z,17.20
2023-05-14T03:47:03.917Z,19.20
2023-05-14T03:52:06.940Z,17.20
2023-05-14T03:57:09.859Z,16.20
2023-05-14T04:02:12.915Z,14.70
2023-05-14T04:07:15.840Z,18.30
2023-05-14T04:12:18.775Z,17.90
2023-05-14T04:17:21.602Z,15.40
2023-05-14T04:22:24.490Z,16.30
2023-05-14T04:27:28.723Z,16.90
2023-05-14T04:32:31.659Z,15.40
2023-05-14T04:37:34.534Z,15.40
2023-05-14T04:42:37.673Z,16.90
2023-05-14T04:47:42.451Z,13.50
2023-05-14T04:52:45.713Z,14.60
2023-05-14T04:57:49.308Z,15.30
2023-05-14T05:02:52.342Z,15.20
2023-05-14T05:07:55.523Z,15.10
2023-05-14T05:12:58.357Z,12.30
2023-05-14T05:18:01.259Z,13.70
2023-05-14T05:23:04.160Z,13.70
2023-05-14T05:28:07.127Z,13.10
2023-05-14T05:33:10.127Z,13.40
2023-05-14T05:38:15.114Z,13.10
2023-05-14T05:43:18.107Z,10.60
2023-05-14T05:48:21.826Z,11.70
2023-05-14T05:53:24.655Z,15.40
2023-05-14T05:58:27.488Z,13.80
2023-05-14T06:03:30.400Z,10.60
2023-05-14T06:08:34.267Z,11.20
2023-05-14T06:13:37.639Z,11.20
2023-05-14T06:18:41.020Z,11.50
2023-05-14T06:23:44.470Z,14.60
2023-05-14T06:28:47.783Z,12.80
2023-05-14T06:33:50.735Z,9.50
2023-05-14T06:38:53.593Z,12.20
2023-05-14T06:43:56.475Z,9.70
2023-05-14T06:48:59.734Z,11.50
2023-05-14T06:54:02.714Z,8.30
2023-05-14T06:59:05.634Z,10.40
2023-05-14T07:04:08.541Z,9.50
2023-05-14T07:09:11.401Z,8.60
2023-05-14T07:14:14.325Z,8.90
2023-05-14T07:19:17.313Z,11.20
2023-05-14T07:24:20.382Z,8.50
2023-05-14T07:29:25.523Z,7.60
2023-05-14T07:34:28.450Z,8.40
2023-05-14T07:39:31.377Z,9.00
2023-05-14T07:44:34.157Z,6.70
2023-05-14T07:49:37.051Z,7.70
2023-05-14T07:54:39.909Z,7.30
2023-05-14T07:59:42.776Z,7.40
2023-05-14T08:04:45.740Z,6.10
2023-05-14T08:09:48.646Z,7.70
2023-05-14T08:14:52.134Z,6.10
2023-05-14T08:19:54.988Z,5.50
2023-05-14T08:24:57.820Z,6.40
2023-05-14T08:30:00.845Z,9.30
2023-05-14T08:35:04.654Z,5.80
2023-05-14T08:40:09.338Z,5.30
2023-05-14T08:45:27.445Z,11.40
2023-05-14T08:50:31.160Z,9.20
2023-05-14T08:55:36.662Z,7.50
2023-05-14T09:00:41.312Z,6.40
2023-05-14T09:05:45.948Z,6.80
2023-05-14T09:10:48.924Z,6.50
2023-05-14T09:15:53.278Z,6.00
2023-05-14T09:20:56.434Z,7.30
2023-05-14T09:25:59.361Z,6.90
2023-05-14T09:31:03.398Z,7.50
2023-05-14T09:36:07.086Z,7.00
2023-05-14T09:41:10.895Z,6.90
2023-05-14T09:46:14.694Z,6.10
2023-05-14T09:51:18.278Z,6.00
2023-05-14T09:56:22.178Z,5.20
2023-05-14T10:01:26.916Z,6.50
2023-05-14T10:06:37.442Z,5.20
2023-05-14T10:11:45.688Z,5.50
2023-05-14T10:16:51.857Z,7.00
2023-05-14T10:22:07.188Z,6.10
2023-05-14T10:27:10.572Z,9.60
2023-05-14T10:32:14.993Z,5.50
2023-05-14T10:37:26.081Z,5.50
2023-05-14T10:42:45.232Z,5.10
2023-05-14T10:47:48.982Z,7.00
2023-05-14T10:52:52.918Z,6.60
2023-05-14T10:57:59.244Z,5.50
2023-05-14T11:03:06.536Z,6.80
2023-05-14T11:08:12.516Z,6.60
2023-05-14T11:13:18.958Z,5.50
2023-05-14T11:18:36.971Z,6.30
2023-05-14T11:23:39.795Z,5.90
2023-05-14T11:28:42.692Z,5.70
2023-05-14T11:33:45.758Z,6.80
2023-05-14T11:38:51.896Z,6.00
2023-05-14T11:43:55.032Z,6.00
2023-05-14T11:48:57.824Z,6.70
2023-05-14T11:54:00.758Z,6.60
2023-05-14T11:59:03.572Z,5.20
2023-05-14T12:04:06.748Z,5.00
2023-05-14T12:09:13.034Z,10.00
2023-05-14T12:14:21.775Z,8.60
2023-05-14T12:19:25.972Z,6.70
2023-05-14T12:24:29.555Z,5.40
2023-05-14T12:29:37.933Z,5.70
2023-05-14T12:34:40.798Z,6.80
2023-05-14T12:39:43.745Z,6.20
2023-05-14T12:44:46.730Z,6.20
2023-05-14T12:49:49.949Z,5.30
2023-05-14T12:54:53.037Z,7.60
2023-05-14T12:59:57.418Z,11.50
2023-05-14T13:05:07.850Z,6.30
2023-05-14T13:10:18.965Z,4.80
2023-05-14T13:15:23.499Z,4.90
2023-05-14T13:20:27.897Z,6.20
2023-05-14T13:25:30.977Z,7.30
2023-05-14T13:30:33.818Z,5.90
2023-05-14T13:35:36.795Z,5.50
2023-05-14T13:40:39.601Z,6.60
2023-05-14T13:45:42.616Z,4.80
2023-05-14T13:50:45.534Z,5.80
2023-05-14T13:55:50.346Z,4.70
2023-05-14T14:00:54.007Z,6.90
2023-05-14T14:05:56.931Z,6.30
2023-05-14T14:11:00.387Z,5.70
2023-05-14T14:16:03.680Z,5.10
2023-05-14T14:21:06.759Z,7.10
2023-05-14T14:26:09.713Z,7.40
2023-05-14T14:31:13.342Z,6.20
2023-05-14T14:36:16.326Z,4.90
2023-05-14T14:41:19.311Z,5.60
2023-05-14T14:46:22.370Z,7.30
2023-05-14T14:51:25.516Z,6.10
2023-05-14T14:56:28.341Z,5.40
2023-05-14T15:01:31.510Z,5.40
2023-05-14T15:06:34.571Z,5.60
2023-05-14T15:11:37.776Z,5.10
2023-05-14T15:16:42.086Z,8.60
2023-05-14T15:21:45.259Z,6.80
2023-05-14T15:26:50.567Z,5.10
2023-05-14T15:31:57.945Z,6.80
2023-05-14T15:37:03.082Z,5.30
2023-05-14T15:42:06.879Z,4.40
2023-05-14T15:47:09.685Z,6.90
2023-05-14T15:52:12.757Z,5.30
2023-05-14T15:57:17.914Z,5.00
2023-05-14T16:02:22.893Z,6.30
2023-05-14T16:07:25.930Z,7.70
2023-05-14T16:12:28.881Z,8.50
2023-05-14T16:17:32.889Z,8.50
2023-05-14T16:22:36.649Z,6.90
2023-05-14T16:27:39.573Z,5.50
2023-05-14T16:32:42.676Z,6.50
2023-05-14T16:37:45.997Z,7.90
2023-05-14T16:42:49.481Z,6.20
2023-05-14T16:47:52.709Z,5.10
2023-05-14T16:52:55.767Z,8.50
2023-05-14T16:57:58.680Z,11.50
2023-05-14T17:03:02.503Z,5.60
2023-05-14T17:08:05.934Z,8.60
2023-05-14T17:13:08.881Z,8.20
2023-05-14T17:18:29.816Z,8.10
2023-05-14T17:23:33.557Z,6.00
2023-05-14T17:28:36.468Z,6.60
2023-05-14T17:33:39.362Z,9.40
2023-05-14T17:38:42.363Z,7.50
2023-05-14T17:43:45.358Z,8.30
2023-05-14T17:48:48.267Z,9.10
2023-05-14T17:53:51.251Z,9.00
2023-05-14T17:58:54.218Z,10.60
2023-05-14T18:03:57.347Z,7.50
2023-05-14T18:09:00.208Z,7.90
2023-05-14T18:14:03.387Z,10.70
2023-05-14T18:19:06.471Z,10.30
2023-05-14T18:24:09.465Z,10.40
2023-05-14T18:29:12.301Z,8.30
2023-05-14T18:34:15.293Z,8.60
2023-05-14T18:39:18.171Z,7.60
2023-05-14T18:44:21.772Z,8.90
2023-05-14T18:49:24.680Z,7.30
2023-05-14T18:54:27.624Z,7.40
2023-05-14T18:59:30.690Z,10.70
2023-05-14T19:04:44.308Z,8.00
2023-05-14T19:09:53.962Z,10.90
2023-05-14T19:14:56.819Z,12.40
2023-05-14T19:20:00.027Z,19.10
2023-05-14T19:25:03.729Z,27.50
2023-05-14T19:30:08.897Z,18.10
2023-05-14T19:35:12.216Z,26.40
2023-05-14T19:40:15.317Z,49.80
2023-05-14T19:45:18.281Z,34.00
2023-05-14T19:50:21.181Z,31.70
2023-05-14T19:55:24.360Z,22.60
2023-05-14T20:00:31.937Z,18.80
2023-05-14T20:05:35.390Z,20.20
2023-05-14T20:10:38.922Z,18.30
2023-05-14T20:15:43.144Z,19.60
2023-05-14T20:20:46.067Z,21.90
2023-05-14T20:25:49.013Z,23.40
2023-05-14T20:30:52.390Z,21.20
2023-05-14T20:35:55.513Z,33.50
2023-05-14T20:40:58.571Z,31.10
2023-05-14T20:46:01.573Z,32.30
2023-05-14T20:51:06.541Z,28.20
2023-05-14T20:56:09.602Z,30.30
2023-05-14T21:01:12.552Z,24.50
2023-05-14T21:06:15.459Z,27.10
2023-05-14T21:11:18.328Z,19.70
2023-05-14T21:16:21.792Z,21.20
2023-05-14T21:21:24.760Z,15.30
2023-05-14T21:26:31.810Z,18.20
2023-05-14T21:31:34.675Z,13.90
2023-05-14T21:36:37.854Z,16.00
2023-05-14T21:41:40.668Z,16.30
2023-05-14T21:46:43.536Z,18.20
2023-05-14T21:51:46.856Z,15.80
2023-05-14T21:56:49.854Z,16.30
2023-05-14T22:02:06.361Z,17.30
2023-05-14T22:07:10.792Z,18.10
2023-05-14T22:12:13.733Z,15.10
2023-05-14T22:17:16.835Z,14.00
2023-05-14T22:22:19.732Z,13.30
2023-05-14T22:27:23.033Z,15.40
2023-05-14T22:32:26.487Z,16.70
2023-05-14T22:37:29.413Z,18.00
2023-05-14T22:42:32.246Z,15.80
2023-05-14T22:47:35.137Z,15.20
2023-05-14T22:52:39.510Z,13.50
2023-05-14T22:57:42.443Z,13.10
2023-05-14T23:02:45.458Z,14.80
2023-05-14T23:07:48.446Z,14.90
2023-05-14T23:12:51.342Z,17.20
2023-05-14T23:17:54.328Z,11.70
2023-05-14T23:22:57.303Z,12.60
2023-05-14T23:28:00.464Z,11.50
2023-05-14T23:33:03.410Z,14.40
2023-05-14T23:38:07.461Z,14.00
2023-05-14T23:43:10.287Z,12.30
2023-05-14T23:48:13.152Z,12.30
2023-05-14T23:53:16.074Z,11.80
2023-05-14T23:58:18.984Z,12.30
